sensor_id;sensor_type;location;lat;lon;timestamp;pressure;altitude;pressure_sealevel;temperature
75431;BMP280;64127;51.488;5.462;2023-02-28T00:01:35;102849.25;;;5.28
75431;BMP280;64127;51.488;5.462;2023-02-28T00:04:07;102852.78;;;5.29
75431;BMP280;64127;51.488;5.462;2023-02-28T00:06:41;102850.19;;;5.29
75431;BMP280;64127;51.488;5.462;2023-02-28T00:09:13;102857.84;;;5.27
75431;BMP280;64127;51.488;5.462;2023-02-28T00:11:45;102861.22;;;5.26
75431;BMP280;64127;51.488;5.462;2023-02-28T00:14:17;102845.50;;;5.16
75431;BMP280;64127;51.488;5.462;2023-02-28T00:16:49;102850.25;;;5.20
75431;BMP280;64127;51.488;5.462;2023-02-28T00:19:21;102850.72;;;5.16
75431;BMP280;64127;51.488;5.462;2023-02-28T00:21:53;102856.97;;;5.18
75431;BMP280;64127;51.488;5.462;2023-02-28T00:24:25;102853.31;;;5.16
75431;BMP280;64127;51.488;5.462;2023-02-28T00:26:57;102854.97;;;5.16
75431;BMP280;64127;51.488;5.462;2023-02-28T00:29:29;102858.22;;;5.13
75431;BMP280;64127;51.488;5.462;2023-02-28T00:32:01;102850.13;;;5.10
75431;BMP280;64127;51.488;5.462;2023-02-28T00:34:34;102842.00;;;5.07
75431;BMP280;64127;51.488;5.462;2023-02-28T00:37:11;102854.41;;;5.09
75431;BMP280;64127;51.488;5.462;2023-02-28T00:39:46;102850.59;;;5.06
75431;BMP280;64127;51.488;5.462;2023-02-28T00:42:18;102850.59;;;5.06
75431;BMP280;64127;51.488;5.462;2023-02-28T00:44:50;102848.47;;;5.02
75431;BMP280;64127;51.488;5.462;2023-02-28T00:47:22;102847.72;;;5.03
75431;BMP280;64127;51.488;5.462;2023-02-28T00:49:54;102842.06;;;4.98
75431;BMP280;64127;51.488;5.462;2023-02-28T00:52:26;102831.84;;;4.91
75431;BMP280;64127;51.488;5.462;2023-02-28T00:54:58;102853.38;;;4.99
75431;BMP280;64127;51.488;5.462;2023-02-28T00:57:30;102847.72;;;4.94
75431;BMP280;64127;51.488;5.462;2023-02-28T01:00:04;102850.03;;;5.00
75431;BMP280;64127;51.488;5.462;2023-02-28T01:02:36;102847.53;;;5.01
75431;BMP280;64127;51.488;5.462;2023-02-28T01:05:08;102831.69;;;4.90
75431;BMP280;64127;51.488;5.462;2023-02-28T01:07:40;102852.44;;;4.98
75431;BMP280;64127;51.488;5.462;2023-02-28T01:10:12;102854.13;;;4.98
75431;BMP280;64127;51.488;5.462;2023-02-28T01:12:44;102863.19;;;4.93
75431;BMP280;64127;51.488;5.462;2023-02-28T01:15:16;102863.19;;;4.93
75431;BMP280;64127;51.488;5.462;2023-02-28T01:17:48;102867.44;;;4.92
75431;BMP280;64127;51.488;5.462;2023-02-28T01:20:21;102869.13;;;4.92
75431;BMP280;64127;51.488;5.462;2023-02-28T01:22:53;102864.41;;;4.88
75431;BMP280;64127;51.488;5.462;2023-02-28T01:25:24;102867.75;;;4.87
75431;BMP280;64127;51.488;5.462;2023-02-28T01:27:57;102869.31;;;4.85
75431;BMP280;64127;51.488;5.462;2023-02-28T01:30:29;102869.00;;;4.82
75431;BMP280;64127;51.488;5.462;2023-02-28T01:33:01;102857.41;;;4.70
75431;BMP280;64127;51.488;5.462;2023-02-28T01:35:34;102867.50;;;4.75
75431;BMP280;64127;51.488;5.462;2023-02-28T01:38:07;102853.75;;;4.68
75431;BMP280;64127;51.488;5.462;2023-02-28T01:40:53;102867.50;;;4.75
75431;BMP280;64127;51.488;5.462;2023-02-28T01:46:15;102861.56;;;4.68
75431;BMP280;64127;51.488;5.462;2023-02-28T01:48:59;102858.19;;;4.69
75431;BMP280;64127;51.488;5.462;2023-02-28T01:51:50;102853.47;;;4.65
75431;BMP280;64127;51.488;5.462;2023-02-28T01:54:31;102851.78;;;4.65
75431;BMP280;64127;51.488;5.462;2023-02-28T01:57:10;102855.31;;;4.66
75431;BMP280;64127;51.488;5.462;2023-02-28T01:59:56;102851.03;;;4.57
75431;BMP280;64127;51.488;5.462;2023-02-28T02:02:31;102836.38;;;4.58
75431;BMP280;64127;51.488;5.462;2023-02-28T02:05:12;102822.34;;;4.47
75431;BMP280;64127;51.488;5.462;2023-02-28T02:07:50;102831.19;;;4.49
75431;BMP280;64127;51.488;5.462;2023-02-28T02:25:22;102821.28;;;4.45
75431;BMP280;64127;51.488;5.462;2023-02-28T02:31:32;102812.88;;;4.39
75431;BMP280;64127;51.488;5.462;2023-02-28T02:37:57;102819.75;;;4.39
75431;BMP280;64127;51.488;5.462;2023-02-28T02:43:54;102827.88;;;4.33
75431;BMP280;64127;51.488;5.462;2023-02-28T02:46:41;102810.03;;;4.28
75431;BMP280;64127;51.488;5.462;2023-02-28T02:49:27;102822.97;;;4.36
75431;BMP280;64127;51.488;5.462;2023-02-28T02:52:06;102828.91;;;4.35
75431;BMP280;64127;51.488;5.462;2023-02-28T02:54:44;102820.41;;;4.28
75431;BMP280;64127;51.488;5.462;2023-02-28T02:57:26;102826.94;;;4.33
75431;BMP280;64127;51.488;5.462;2023-02-28T03:00:03;102834.28;;;4.37
75431;BMP280;64127;51.488;5.462;2023-02-28T03:02:39;102817.66;;;4.26
75431;BMP280;64127;51.488;5.462;2023-02-28T03:05:24;102792.03;;;4.12
75431;BMP280;64127;51.488;5.462;2023-02-28T03:07:57;102834.75;;;4.41
75431;BMP280;64127;51.488;5.462;2023-02-28T03:10:41;102825.09;;;4.40
75431;BMP280;64127;51.488;5.462;2023-02-28T03:13:46;102821.75;;;4.41
75431;BMP280;64127;51.488;5.462;2023-02-28T03:26:01;102818.66;;;4.45
75431;BMP280;64127;51.488;5.462;2023-02-28T03:36:57;102821.09;;;4.52
75431;BMP280;64127;51.488;5.462;2023-02-28T03:39:44;102830.91;;;4.55
75431;BMP280;64127;51.488;5.462;2023-02-28T03:42:22;102825.72;;;4.55
75431;BMP280;64127;51.488;5.462;2023-02-28T03:45:04;102826.91;;;4.58
75431;BMP280;64127;51.488;5.462;2023-02-28T03:50:53;102822.03;;;4.62
75431;BMP280;64127;51.488;5.462;2023-02-28T03:53:35;102828.72;;;4.68
75431;BMP280;64127;51.488;5.462;2023-02-28T03:56:31;102833.00;;;4.68
75431;BMP280;64127;51.488;5.462;2023-02-28T03:59:13;102829.00;;;4.71
75431;BMP280;64127;51.488;5.462;2023-02-28T04:01:48;102827.75;;;4.76
75431;BMP280;64127;51.488;5.462;2023-02-28T04:04:21;102830.53;;;4.78
75431;BMP280;64127;51.488;5.462;2023-02-28T04:07:04;102824.56;;;4.79
75431;BMP280;64127;51.488;5.462;2023-02-28T04:09:37;102833.88;;;4.77
75431;BMP280;64127;51.488;5.462;2023-02-28T04:12:09;102818.47;;;4.70
75431;BMP280;64127;51.488;5.462;2023-02-28T04:14:41;102819.56;;;4.72
75431;BMP280;64127;51.488;5.462;2023-02-28T04:17:13;102800.34;;;4.61
75431;BMP280;64127;51.488;5.462;2023-02-28T04:19:45;102822.44;;;4.75
75431;BMP280;64127;51.488;5.462;2023-02-28T04:22:17;102825.03;;;4.75
75431;BMP280;64127;51.488;5.462;2023-02-28T04:24:49;102829.75;;;4.79
75431;BMP280;64127;51.488;5.462;2023-02-28T04:27:22;102834.16;;;4.80
75431;BMP280;64127;51.488;5.462;2023-02-28T04:29:53;102839.53;;;4.81
75431;BMP280;64127;51.488;5.462;2023-02-28T04:32:25;102835.25;;;4.82
75431;BMP280;64127;51.488;5.462;2023-02-28T04:34:57;102839.69;;;4.83
75431;BMP280;64127;51.488;5.462;2023-02-28T04:37:29;102840.72;;;4.85
75431;BMP280;64127;51.488;5.462;2023-02-28T04:40:02;102843.34;;;4.85
75431;BMP280;64127;51.488;5.462;2023-02-28T04:42:34;102838.28;;;4.86
75431;BMP280;64127;51.488;5.462;2023-02-28T04:45:08;102845.19;;;4.86
75431;BMP280;64127;51.488;5.462;2023-02-28T04:47:41;102841.19;;;4.89
75431;BMP280;64127;51.488;5.462;2023-02-28T04:50:14;102841.31;;;4.91
75431;BMP280;64127;51.488;5.462;2023-02-28T04:52:46;102848.47;;;4.93
75431;BMP280;64127;51.488;5.462;2023-02-28T04:55:17;102844.50;;;4.97
75431;BMP280;64127;51.488;5.462;2023-02-28T04:57:49;102839.63;;;5.00
75431;BMP280;64127;51.488;5.462;2023-02-28T05:00:21;102847.25;;;4.98
75431;BMP280;64127;51.488;5.462;2023-02-28T05:02:53;102848.59;;;5.03
75431;BMP280;64127;51.488;5.462;2023-02-28T05:05:25;102840.03;;;5.04
75431;BMP280;64127;51.488;5.462;2023-02-28T05:07:57;102834.53;;;5.10
75431;BMP280;64127;51.488;5.462;2023-02-28T05:10:29;102837.16;;;5.10
75431;BMP280;64127;51.488;5.462;2023-02-28T05:13:01;102843.38;;;5.12
75431;BMP280;64127;51.488;5.462;2023-02-28T05:15:33;102847.03;;;5.14
75431;BMP280;64127;51.488;5.462;2023-02-28T05:18:08;102854.69;;;5.13
75431;BMP280;64127;51.488;5.462;2023-02-28T05:20:40;102848.13;;;5.16
75431;BMP280;64127;51.488;5.462;2023-02-28T05:23:14;102849.94;;;5.17
75431;BMP280;64127;51.488;5.462;2023-02-28T05:25:46;102844.44;;;5.14
75431;BMP280;64127;51.488;5.462;2023-02-28T05:28:18;102859.56;;;5.18
75431;BMP280;64127;51.488;5.462;2023-02-28T05:30:50;102857.75;;;5.17
75431;BMP280;64127;51.488;5.462;2023-02-28T05:33:22;102859.72;;;5.20
75431;BMP280;64127;51.488;5.462;2023-02-28T05:35:55;102860.75;;;5.22
75431;BMP280;64127;51.488;5.462;2023-02-28T05:38:27;102850.41;;;5.13
75431;BMP280;64127;51.488;5.462;2023-02-28T05:40:59;102863.22;;;5.20
75431;BMP280;64127;51.488;5.462;2023-02-28T05:43:31;102843.22;;;5.10
75431;BMP280;64127;51.488;5.462;2023-02-28T05:46:09;102861.41;;;5.19
75431;BMP280;64127;51.488;5.462;2023-02-28T05:48:45;102858.22;;;5.13
75431;BMP280;64127;51.488;5.462;2023-02-28T05:51:17;102856.97;;;5.18
75431;BMP280;64127;51.488;5.462;2023-02-28T05:53:49;102865.84;;;5.20
75431;BMP280;64127;51.488;5.462;2023-02-28T05:56:21;102863.38;;;5.22
75431;BMP280;64127;51.488;5.462;2023-02-28T05:58:53;102862.16;;;5.18
75431;BMP280;64127;51.488;5.462;2023-02-28T06:01:44;102871.63;;;5.18
75431;BMP280;64127;51.488;5.462;2023-02-28T06:04:22;102864.75;;;5.18
75431;BMP280;64127;51.488;5.462;2023-02-28T06:07:02;102855.91;;;5.16
75431;BMP280;64127;51.488;5.462;2023-02-28T06:09:35;102849.06;;;5.08
75431;BMP280;64127;51.488;5.462;2023-02-28T06:12:07;102867.06;;;5.15
75431;BMP280;64127;51.488;5.462;2023-02-28T06:14:41;102868.16;;;5.17
75431;BMP280;64127;51.488;5.462;2023-02-28T06:17:13;102867.06;;;5.15
75431;BMP280;64127;51.488;5.462;2023-02-28T06:19:45;102875.81;;;5.43
75431;BMP280;64127;51.488;5.462;2023-02-28T06:22:17;102860.81;;;5.13
75431;BMP280;64127;51.488;5.462;2023-02-28T06:24:49;102888.13;;;5.18
75431;BMP280;64127;51.488;5.462;2023-02-28T06:27:21;102879.59;;;5.19
75431;BMP280;64127;51.488;5.462;2023-02-28T06:29:54;102881.72;;;5.23
75431;BMP280;64127;51.488;5.462;2023-02-28T06:32:27;102880.63;;;5.21
75431;BMP280;64127;51.488;5.462;2023-02-28T06:34:59;102884.03;;;5.20
75431;BMP280;64127;51.488;5.462;2023-02-28T06:37:32;102874.09;;;5.16
75431;BMP280;64127;51.488;5.462;2023-02-28T06:40:05;102878.66;;;5.19
75431;BMP280;64127;51.488;5.462;2023-02-28T06:42:38;102881.25;;;5.19
75431;BMP280;64127;51.488;5.462;2023-02-28T06:45:11;102884.31;;;5.23
75431;BMP280;64127;51.488;5.462;2023-02-28T06:47:43;102876.50;;;5.23
75431;BMP280;64127;51.488;5.462;2023-02-28T06:50:15;102889.03;;;5.27
75431;BMP280;64127;51.488;5.462;2023-02-28T06:52:49;102887.50;;;5.29
75431;BMP280;64127;51.488;5.462;2023-02-28T06:55:25;102883.34;;;5.31
75431;BMP280;64127;51.488;5.462;2023-02-28T06:57:58;102888.06;;;5.35
75431;BMP280;64127;51.488;5.462;2023-02-28T07:00:30;102890.81;;;5.37
75431;BMP280;64127;51.488;5.462;2023-02-28T07:03:02;102895.88;;;5.35
75431;BMP280;64127;51.488;5.462;2023-02-28T07:05:36;102889.16;;;5.29
75431;BMP280;64127;51.488;5.462;2023-02-28T07:08:08;102900.44;;;5.38
75431;BMP280;64127;51.488;5.462;2023-02-28T07:10:41;102906.38;;;5.45
75431;BMP280;64127;51.488;5.462;2023-02-28T07:13:13;102909.41;;;5.50
75431;BMP280;64127;51.488;5.462;2023-02-28T07:15:56;102905.72;;;5.56
75431;BMP280;64127;51.488;5.462;2023-02-28T07:18:29;102906.75;;;5.58
75431;BMP280;64127;51.488;5.462;2023-02-28T07:21:08;102909.06;;;5.55
75431;BMP280;64127;51.488;5.462;2023-02-28T07:23:41;102911.38;;;5.52
75431;BMP280;64127;51.488;5.462;2023-02-28T07:26:17;102897.06;;;5.47
75431;BMP280;64127;51.488;5.462;2023-02-28T07:28:50;102914.75;;;5.51
75431;BMP280;64127;51.488;5.462;2023-02-28T07:31:22;102926.22;;;5.53
75431;BMP280;64127;51.488;5.462;2023-02-28T07:33:54;102919.56;;;5.66
75431;BMP280;64127;51.488;5.462;2023-02-28T07:36:26;102925.19;;;5.79
75431;BMP280;64127;51.488;5.462;2023-02-28T07:38:58;102922.50;;;5.96
75431;BMP280;64127;51.488;5.462;2023-02-28T07:41:30;102927.19;;;6.08
75431;BMP280;64127;51.488;5.462;2023-02-28T07:44:05;102911.38;;;6.16
75431;BMP280;64127;51.488;5.462;2023-02-28T07:46:38;102913.31;;;6.18
75431;BMP280;64127;51.488;5.462;2023-02-28T07:49:10;102917.84;;;6.29
75431;BMP280;64127;51.488;5.462;2023-02-28T07:51:42;102918.41;;;6.35
75431;BMP280;64127;51.488;5.462;2023-02-28T07:54:14;102915.25;;;6.29
75431;BMP280;64127;51.488;5.462;2023-02-28T07:56:46;102918.31;;;6.25
75431;BMP280;64127;51.488;5.462;2023-02-28T07:59:17;102923.75;;;6.18
75431;BMP280;64127;51.488;5.462;2023-02-28T08:01:50;102929.56;;;6.16
75431;BMP280;64127;51.488;5.462;2023-02-28T08:04:22;102931.38;;;6.17
75431;BMP280;64127;51.488;5.462;2023-02-28T08:06:54;102931.06;;;6.22
75431;BMP280;64127;51.488;5.462;2023-02-28T08:09:28;102926.97;;;6.34
75431;BMP280;64127;51.488;5.462;2023-02-28T08:12:01;102920.31;;;6.46
75431;BMP280;64127;51.488;5.462;2023-02-28T08:14:34;102913.03;;;6.52
75431;BMP280;64127;51.488;5.462;2023-02-28T08:17:06;102924.88;;;6.68
75431;BMP280;64127;51.488;5.462;2023-02-28T08:19:39;102923.84;;;6.76
75431;BMP280;64127;51.488;5.462;2023-02-28T08:22:10;102930.47;;;6.91
75431;BMP280;64127;51.488;5.462;2023-02-28T08:24:43;102893.59;;;6.96
75431;BMP280;64127;51.488;5.462;2023-02-28T08:27:15;102907.00;;;7.30
75431;BMP280;64127;51.488;5.462;2023-02-28T08:29:47;102911.66;;;7.52
75431;BMP280;64127;51.488;5.462;2023-02-28T08:32:19;102904.88;;;7.64
75431;BMP280;64127;51.488;5.462;2023-02-28T08:35:00;102875.66;;;7.58
75431;BMP280;64127;51.488;5.462;2023-02-28T08:37:33;102914.56;;;7.86
75431;BMP280;64127;51.488;5.462;2023-02-28T08:40:06;102874.22;;;7.72
75431;BMP280;64127;51.488;5.462;2023-02-28T08:42:38;102916.25;;;8.05
75431;BMP280;64127;51.488;5.462;2023-02-28T08:45:12;102911.03;;;8.15
75431;BMP280;64127;51.488;5.462;2023-02-28T08:47:44;102903.50;;;8.29
75431;BMP280;64127;51.488;5.462;2023-02-28T08:50:16;102908.59;;;8.37
75431;BMP280;64127;51.488;5.462;2023-02-28T08:52:48;102910.91;;;8.44
75431;BMP280;64127;51.488;5.462;2023-02-28T08:55:20;102905.69;;;8.44
75431;BMP280;64127;51.488;5.462;2023-02-28T08:57:52;102906.47;;;8.43
75431;BMP280;64127;51.488;5.462;2023-02-28T09:00:25;102909.34;;;8.46
75431;BMP280;64127;51.488;5.462;2023-02-28T09:02:57;102911.06;;;8.46
75431;BMP280;64127;51.488;5.462;2023-02-28T09:05:29;102903.84;;;8.43
75431;BMP280;64127;51.488;5.462;2023-02-28T09:08:01;102908.31;;;8.44
75431;BMP280;64127;51.488;5.462;2023-02-28T09:10:34;102905.28;;;8.50
75431;BMP280;64127;51.488;5.462;2023-02-28T09:13:06;102908.72;;;8.49
75431;BMP280;64127;51.488;5.462;2023-02-28T09:15:39;102908.56;;;8.47
75431;BMP280;64127;51.488;5.462;2023-02-28T09:18:11;102906.38;;;8.42
75431;BMP280;64127;51.488;5.462;2023-02-28T09:20:44;102906.09;;;8.39
75431;BMP280;64127;51.488;5.462;2023-02-28T09:23:16;102899.03;;;8.38
75431;BMP280;64127;51.488;5.462;2023-02-28T09:25:52;102903.84;;;8.43
75431;BMP280;64127;51.488;5.462;2023-02-28T09:28:25;102901.91;;;8.51
75431;BMP280;64127;51.488;5.462;2023-02-28T09:30:57;102894.44;;;8.55
75431;BMP280;64127;51.488;5.462;2023-02-28T09:33:31;102884.50;;;8.61
75431;BMP280;64127;51.488;5.462;2023-02-28T09:36:03;102897.34;;;8.90
75431;BMP280;64127;51.488;5.462;2023-02-28T09:38:35;102896.88;;;9.06
75431;BMP280;64127;51.488;5.462;2023-02-28T09:41:19;102899.50;;;9.06
75431;BMP280;64127;51.488;5.462;2023-02-28T09:43:57;102908.06;;;9.15
75431;BMP280;64127;51.488;5.462;2023-02-28T09:46:37;102912.22;;;9.23
75431;BMP280;64127;51.488;5.462;2023-02-28T09:49:18;102900.34;;;9.16
75431;BMP280;64127;51.488;5.462;2023-02-28T09:52:01;102898.97;;;9.10
75431;BMP280;64127;51.488;5.462;2023-02-28T09:54:33;102893.78;;;9.22
75431;BMP280;64127;51.488;5.462;2023-02-28T09:57:15;102897.78;;;9.28
75431;BMP280;64127;51.488;5.462;2023-02-28T10:06:29;102886.38;;;9.38
75431;BMP280;64127;51.488;5.462;2023-02-28T10:09:17;102897.00;;;9.29
75431;BMP280;64127;51.488;5.462;2023-02-28T10:12:04;102887.84;;;9.34
75431;BMP280;64127;51.488;5.462;2023-02-28T10:14:41;102885.28;;;9.46
75431;BMP280;64127;51.488;5.462;2023-02-28T10:17:27;102881.94;;;9.58
75431;BMP280;64127;51.488;5.462;2023-02-28T10:20:17;102871.69;;;9.61
75431;BMP280;64127;51.488;5.462;2023-02-28T10:23:11;102878.09;;;9.65
75431;BMP280;64127;51.488;5.462;2023-02-28T10:25:54;102846.84;;;9.56
75431;BMP280;64127;51.488;5.462;2023-02-28T10:28:29;102864.72;;;9.84
75431;BMP280;64127;51.488;5.462;2023-02-28T10:31:03;102872.72;;;9.97
75431;BMP280;64127;51.488;5.462;2023-02-28T10:33:35;102868.19;;;10.06
75431;BMP280;64127;51.488;5.462;2023-02-28T10:36:18;102858.81;;;9.98
75431;BMP280;64127;51.488;5.462;2023-02-28T10:38:51;102862.72;;;10.03
75431;BMP280;64127;51.488;5.462;2023-02-28T10:41:32;102855.41;;;10.10
75431;BMP280;64127;51.488;5.462;2023-02-28T10:44:22;102856.34;;;10.11
75431;BMP280;64127;51.488;5.462;2023-02-28T10:46:56;102859.03;;;10.23
75431;BMP280;64127;51.488;5.462;2023-02-28T10:49:28;102860.97;;;10.25
75431;BMP280;64127;51.488;5.462;2023-02-28T10:52:01;102864.38;;;10.24
75431;BMP280;64127;51.488;5.462;2023-02-28T10:54:36;102850.94;;;10.31
75431;BMP280;64127;51.488;5.462;2023-02-28T10:57:23;102854.59;;;10.33
75431;BMP280;64127;51.488;5.462;2023-02-28T11:00:33;102850.25;;;10.45
75431;BMP280;64127;51.488;5.462;2023-02-28T11:03:32;102845.94;;;10.57
75431;BMP280;64127;51.488;5.462;2023-02-28T11:06:13;102841.59;;;10.69
75431;BMP280;64127;51.488;5.462;2023-02-28T11:08:56;102844.34;;;10.71
75431;BMP280;64127;51.488;5.462;2023-02-28T11:11:42;102842.84;;;10.75
75431;BMP280;64127;51.488;5.462;2023-02-28T11:14:41;102840.66;;;10.81
75431;BMP280;64127;51.488;5.462;2023-02-28T11:17:29;102830.03;;;10.79
75431;BMP280;64127;51.488;5.462;2023-02-28T11:20:06;102841.81;;;10.84
75431;BMP280;64127;51.488;5.462;2023-02-28T11:22:43;102838.41;;;10.74
75431;BMP280;64127;51.488;5.462;2023-02-28T11:25:35;102842.38;;;10.68
75431;BMP280;64127;51.488;5.462;2023-02-28T11:28:36;102836.34;;;10.69
75431;BMP280;64127;51.488;5.462;2023-02-28T11:33:53;102816.00;;;10.90
75431;BMP280;64127;51.488;5.462;2023-02-28T11:36:31;102818.53;;;10.89
75431;BMP280;64127;51.488;5.462;2023-02-28T11:39:19;102824.00;;;10.92
75431;BMP280;64127;51.488;5.462;2023-02-28T12:08:29;102797.75;;;11.53
75431;BMP280;64127;51.488;5.462;2023-02-28T12:26:59;102782.06;;;11.54
75431;BMP280;64127;51.488;5.462;2023-02-28T12:29:30;102781.44;;;11.45
75431;BMP280;64127;51.488;5.462;2023-02-28T12:32:13;102785.31;;;11.50
75431;BMP280;64127;51.488;5.462;2023-02-28T12:34:53;102761.69;;;11.50
75431;BMP280;64127;51.488;5.462;2023-02-28T12:37:58;102771.38;;;11.76
75431;BMP280;64127;51.488;5.462;2023-02-28T12:43:55;102762.59;;;11.89
75431;BMP280;64127;51.488;5.462;2023-02-28T12:46:36;102761.19;;;11.94
75431;BMP280;64127;51.488;5.462;2023-02-28T12:49:41;102754.31;;;11.83
75431;BMP280;64127;51.488;5.462;2023-02-28T12:52:24;102761.19;;;11.81
75431;BMP280;64127;51.488;5.462;2023-02-28T12:55:15;102751.69;;;11.83
75431;BMP280;64127;51.488;5.462;2023-02-28T13:10:02;102739.28;;;12.33
75431;BMP280;64127;51.488;5.462;2023-02-28T13:12:36;102737.22;;;12.42
75431;BMP280;64127;51.488;5.462;2023-02-28T13:15:27;102734.06;;;12.47
75431;BMP280;64127;51.488;5.462;2023-02-28T13:18:02;102721.41;;;12.55
75431;BMP280;64127;51.488;5.462;2023-02-28T13:20:37;102721.00;;;12.62
75431;BMP280;64127;51.488;5.462;2023-02-28T13:23:58;102730.50;;;12.73
75431;BMP280;64127;51.488;5.462;2023-02-28T13:40:29;102715.34;;;12.97
75431;BMP280;64127;51.488;5.462;2023-02-28T13:43:03;102701.38;;;12.98
75431;BMP280;64127;51.488;5.462;2023-02-28T13:46:06;102705.72;;;12.97
75431;BMP280;64127;51.488;5.462;2023-02-28T13:48:41;102698.88;;;13.14
75431;BMP280;64127;51.488;5.462;2023-02-28T13:55:01;102693.47;;;13.40
75431;BMP280;64127;51.488;5.462;2023-02-28T14:04:50;102696.13;;;13.69
75431;BMP280;64127;51.488;5.462;2023-02-28T14:07:04;102696.31;;;13.73
75431;BMP280;64127;51.488;5.462;2023-02-28T14:09:44;102681.56;;;13.76
75431;BMP280;64127;51.488;5.462;2023-02-28T14:15:43;102691.44;;;13.95
75431;BMP280;64127;51.488;5.462;2023-02-28T14:18:36;102686.00;;;13.92
75431;BMP280;64127;51.488;5.462;2023-02-28T14:21:28;102684.56;;;13.97
75431;BMP280;64127;51.488;5.462;2023-02-28T14:24:16;102647.47;;;13.94
75431;BMP280;64127;51.488;5.462;2023-02-28T14:30:02;102679.19;;;13.95
75431;BMP280;64127;51.488;5.462;2023-02-28T14:36:26;102674.63;;;13.93
75431;BMP280;64127;51.488;5.462;2023-02-28T14:41:44;102679.59;;;14.17
75431;BMP280;64127;51.488;5.462;2023-02-28T14:44:26;102659.22;;;14.15
75431;BMP280;64127;51.488;5.462;2023-02-28T14:47:03;102670.94;;;14.20
75431;BMP280;64127;51.488;5.462;2023-02-28T14:49:44;102677.06;;;14.04
75431;BMP280;64127;51.488;5.462;2023-02-28T14:52:23;102661.34;;;13.91
75431;BMP280;64127;51.488;5.462;2023-02-28T14:55:00;102674.88;;;14.12
75431;BMP280;64127;51.488;5.462;2023-02-28T14:57:42;102675.78;;;14.12
75431;BMP280;64127;51.488;5.462;2023-02-28T15:00:33;102672.16;;;14.10
75431;BMP280;64127;51.488;5.462;2023-02-28T15:03:43;102670.47;;;13.82
75431;BMP280;64127;51.488;5.462;2023-02-28T15:06:17;102675.97;;;14.01
75431;BMP280;64127;51.488;5.462;2023-02-28T15:09:14;102669.25;;;14.06
75431;BMP280;64127;51.488;5.462;2023-02-28T15:11:50;102663.94;;;14.20
75431;BMP280;64127;51.488;5.462;2023-02-28T15:14:22;102662.13;;;14.34
75431;BMP280;64127;51.488;5.462;2023-02-28T15:17:06;102658.34;;;14.31
75431;BMP280;64127;51.488;5.462;2023-02-28T15:19:44;102666.91;;;14.57
75431;BMP280;64127;51.488;5.462;2023-02-28T15:22:35;102655.38;;;14.55
75431;BMP280;64127;51.488;5.462;2023-02-28T15:25:15;102669.63;;;14.59
75431;BMP280;64127;51.488;5.462;2023-02-28T15:27:53;102669.06;;;14.48
75431;BMP280;64127;51.488;5.462;2023-02-28T15:30:30;102662.78;;;14.62
75431;BMP280;64127;51.488;5.462;2023-02-28T15:35:43;102666.50;;;14.66
75431;BMP280;64127;51.488;5.462;2023-02-28T15:38:36;102661.16;;;14.48
75431;BMP280;64127;51.488;5.462;2023-02-28T15:41:27;102679.41;;;14.45
75431;BMP280;64127;51.488;5.462;2023-02-28T15:44:27;102665.91;;;14.39
75431;BMP280;64127;51.488;5.462;2023-02-28T15:47:06;102665.44;;;14.62
75431;BMP280;64127;51.488;5.462;2023-02-28T15:50:01;102660.34;;;14.82
75431;BMP280;64127;51.488;5.462;2023-02-28T15:52:43;102650.59;;;14.81
75431;BMP280;64127;51.488;5.462;2023-02-28T15:55:22;102674.94;;;14.75
75431;BMP280;64127;51.488;5.462;2023-02-28T15:58:00;102670.47;;;14.74
75431;BMP280;64127;51.488;5.462;2023-02-28T16:00:33;102655.31;;;14.86
75431;BMP280;64127;51.488;5.462;2023-02-28T16:03:26;102660.16;;;14.95
75431;BMP280;64127;51.488;5.462;2023-02-28T16:06:35;102663.94;;;14.84
75431;BMP280;64127;51.488;5.462;2023-02-28T16:09:15;102663.47;;;14.75
75431;BMP280;64127;51.488;5.462;2023-02-28T16:11:51;102659.66;;;14.69
75431;BMP280;64127;51.488;5.462;2023-02-28T16:14:27;102662.28;;;14.69
75431;BMP280;64127;51.488;5.462;2023-02-28T16:17:28;102666.59;;;14.51
75431;BMP280;64127;51.488;5.462;2023-02-28T16:20:11;102637.91;;;14.27
75431;BMP280;64127;51.488;5.462;2023-02-28T16:22:44;102655.50;;;14.42
75431;BMP280;64127;51.488;5.462;2023-02-28T16:25:22;102662.94;;;14.49
75431;BMP280;64127;51.488;5.462;2023-02-28T16:27:55;102666.00;;;14.41
75431;BMP280;64127;51.488;5.462;2023-02-28T16:30:32;102664.03;;;14.53
75431;BMP280;64127;51.488;5.462;2023-02-28T16:33:04;102671.88;;;14.51
75431;BMP280;64127;51.488;5.462;2023-02-28T16:35:36;102653.56;;;14.38
75431;BMP280;64127;51.488;5.462;2023-02-28T16:38:08;102658.72;;;14.37
75431;BMP280;64127;51.488;5.462;2023-02-28T16:40:40;102671.22;;;14.25
75431;BMP280;64127;51.488;5.462;2023-02-28T16:43:18;102676.81;;;14.00
75431;BMP280;64127;51.488;5.462;2023-02-28T16:45:57;102690.28;;;13.90
75431;BMP280;64127;51.488;5.462;2023-02-28T16:48:34;102688.69;;;13.62
75431;BMP280;64127;51.488;5.462;2023-02-28T16:51:13;102687.66;;;13.31
75431;BMP280;64127;51.488;5.462;2023-02-28T16:53:46;102681.72;;;12.93
75431;BMP280;64127;51.488;5.462;2023-02-28T16:56:23;102692.19;;;12.63
75431;BMP280;64127;51.488;5.462;2023-02-28T16:59:00;102708.41;;;12.30
75431;BMP280;64127;51.488;5.462;2023-02-28T17:01:32;102709.44;;;12.06
75431;BMP280;64127;51.488;5.462;2023-02-28T17:04:05;102707.31;;;11.87
75431;BMP280;64127;51.488;5.462;2023-02-28T17:06:39;102713.50;;;11.75
75431;BMP280;64127;51.488;5.462;2023-02-28T17:09:18;102713.19;;;11.58
75431;BMP280;64127;51.488;5.462;2023-02-28T17:11:50;102723.09;;;11.49
75431;BMP280;64127;51.488;5.462;2023-02-28T17:14:22;102715.59;;;11.42
75431;BMP280;64127;51.488;5.462;2023-02-28T17:16:55;102716.38;;;11.28
75431;BMP280;64127;51.488;5.462;2023-02-28T17:19:27;102718.78;;;11.25
75431;BMP280;64127;51.488;5.462;2023-02-28T17:21:59;102724.41;;;11.18
75431;BMP280;64127;51.488;5.462;2023-02-28T17:24:32;102722.16;;;11.11
75431;BMP280;64127;51.488;5.462;2023-02-28T17:27:04;102714.03;;;10.95
75431;BMP280;64127;51.488;5.462;2023-02-28T17:29:37;102737.06;;;10.99
75431;BMP280;64127;51.488;5.462;2023-02-28T17:32:09;102749.72;;;10.93
75431;BMP280;64127;51.488;5.462;2023-02-28T17:34:49;102751.00;;;10.86
75431;BMP280;64127;51.488;5.462;2023-02-28T17:37:21;102751.69;;;10.84